Time;durP1;ratioP1;P1;durP2;ratioP2;P2;SDS_P1;SDS_P2;PMS_P1;PMS_P2;Temp;Humidity;BMP_temperature;BMP_pressure;BME280_temperature;BME280_humidity;BME280_pressure;Samples;Min_cycle;Max_cycle;Signal;HPM_P1;HPM_P2
2022/08/23 00:01:30;;;;;;;28.58;18.67;;;;;;;20.20;78.68;94660.81;4999232;28;20045;-84
2022/08/23 00:04:04;;;;;;;31.25;18.88;;;;;;;20.28;78.71;94670.63;5000280;28;20095;-84
2022/08/23 00:06:30;;;;;;;34.53;20.73;;;;;;;20.46;78.37;94710.69;4998830;28;20057;-85
2022/08/23 00:08:56;;;;;;;32.60;21.55;;;;;;;20.09;78.48;94662.44;4999118;28;20506;-85
2022/08/23 00:11:35;;;;;;;34.63;20.63;;;;;;;20.49;78.62;94724.28;4998478;28;20049;-84
2022/08/23 00:14:09;;;;;;;38.33;20.60;;;;;;;20.01;78.77;94664.16;4999805;28;20113;-84
2022/08/23 00:16:35;;;;;;;33.45;20.65;;;;;;;20.49;78.54;94721.56;4998605;28;20041;-84
2022/08/23 00:19:06;;;;;;;34.20;19.77;;;;;;;20.24;78.31;94674.34;4999760;28;20069;-84
2022/08/23 00:21:34;;;;;;;36.28;20.30;;;;;;;20.21;77.68;94678.53;4999298;28;20068;-84
2022/08/23 00:23:59;;;;;;;33.63;19.75;;;;;;;20.14;77.47;94656.03;5000284;28;20061;-84
2022/08/23 00:26:25;;;;;;;30.00;19.08;;;;;;;20.60;77.43;94714.53;4999931;28;20046;-84
2022/08/23 00:28:51;;;;;;;35.28;18.70;;;;;;;20.24;77.56;94668.97;4999274;28;20072;-85
2022/08/23 00:31:18;;;;;;;27.35;18.98;;;;;;;20.62;77.27;94725.75;4999006;28;20595;-84
2022/08/23 00:33:44;;;;;;;31.25;19.02;;;;;;;20.61;77.06;94721.47;5001597;28;20412;-84
2022/08/23 00:36:09;;;;;;;28.83;18.67;;;;;;;19.89;76.97;94623.88;5000404;28;20033;-85
2022/08/23 00:38:35;;;;;;;37.28;19.58;;;;;;;20.45;76.65;94709.91;4998735;28;20551;-84
2022/08/23 00:41:01;;;;;;;30.63;18.58;;;;;;;19.48;76.59;94557.84;4998629;28;20137;-85
2022/08/23 00:49:30;;;;;;;27.40;18.17;;;;;;;20.52;76.92;94715.47;5000703;28;20096;-85
2022/08/23 00:52:13;;;;;;;27.63;17.50;;;;;;;20.45;76.81;94706.44;4998580;28;20133;-84
2022/08/23 00:54:41;;;;;;;29.73;19.13;;;;;;;19.95;77.36;94629.78;4998158;28;20477;-84
2022/08/23 00:57:12;;;;;;;32.28;20.25;;;;;;;20.30;76.77;94683.72;4998546;28;20474;-84
2022/08/23 00:59:38;;;;;;;29.87;17.70;;;;;;;20.32;76.98;94698.41;4998463;28;20037;-84
2022/08/23 01:02:05;;;;;;;30.85;19.38;;;;;;;20.45;76.70;94707.22;4999039;28;20165;-85
2022/08/23 01:04:36;;;;;;;30.27;20.27;;;;;;;20.25;76.69;94682.09;4997893;28;20041;-85
2022/08/23 01:07:24;;;;;;;30.83;19.17;;;;;;;20.50;77.13;94723.16;4999629;28;20507;-85
2022/08/23 01:09:53;;;;;;;30.05;20.02;;;;;;;20.45;76.79;94719.91;5000201;28;20034;-85
2022/08/23 01:12:34;;;;;;;31.33;20.10;;;;;;;19.96;77.70;94660.94;4999530;28;20140;-85
2022/08/23 01:15:14;;;;;;;31.65;21.48;;;;;;;20.24;77.67;94696.69;5000244;28;20042;-85
2022/08/23 01:18:06;;;;;;;34.70;21.50;;;;;;;20.49;77.19;94735.03;4998275;28;20045;-85
2022/08/23 01:20:55;;;;;;;39.45;20.83;;;;;;;20.47;77.55;94731.13;4992899;28;20141;-85
2022/08/23 01:23:28;;;;;;;33.47;21.73;;;;;;;20.42;77.57;94726.78;4987931;28;20124;-85
2022/08/23 01:25:55;;;;;;;35.40;21.83;;;;;;;20.12;77.73;94677.91;5000394;28;20046;-85
2022/08/23 01:28:20;;;;;;;31.17;21.55;;;;;;;19.96;78.31;94677.88;5001996;28;20034;-85
2022/08/23 01:30:47;;;;;;;32.42;21.48;;;;;;;19.87;77.68;94653.03;5001840;28;20465;-85
2022/08/23 01:33:13;;;;;;;29.73;19.50;;;;;;;20.02;78.36;94700.72;5001544;28;20048;-85
2022/08/23 01:35:50;;;;;;;35.58;20.63;;;;;;;20.04;77.85;94676.94;5003357;28;20034;-85
2022/08/23 01:38:16;;;;;;;28.77;19.10;;;;;;;20.42;77.66;94724.88;5001940;28;20037;-85
2022/08/23 01:40:42;;;;;;;27.63;18.00;;;;;;;20.55;77.18;94719.41;5001630;28;20076;-85
2022/08/23 01:43:08;;;;;;;26.20;17.38;;;;;;;19.92;77.28;94658.16;5001216;28;20040;-85
2022/08/23 01:45:34;;;;;;;28.83;17.50;;;;;;;20.14;77.08;94682.97;5001977;28;20049;-85
2022/08/23 01:48:01;;;;;;;25.38;17.30;;;;;;;20.38;77.07;94736.66;5001270;28;20101;-85
2022/08/23 01:50:28;;;;;;;22.95;15.55;;;;;;;19.63;76.92;94627.03;5001368;28;20048;-86
2022/08/23 01:52:53;;;;;;;27.60;16.27;;;;;;;19.92;77.08;94662.75;5001529;28;20040;-85
2022/08/23 01:55:20;;;;;;;27.50;16.83;;;;;;;19.87;77.55;94658.41;5001188;28;20046;-85
2022/08/23 01:57:49;;;;;;;25.25;14.82;;;;;;;20.24;76.92;94698.59;5001346;28;20045;-85
2022/08/23 02:00:15;;;;;;;24.52;15.90;;;;;;;19.87;76.77;94633.41;5000636;28;20042;-85
2022/08/23 02:02:40;;;;;;;22.85;15.85;;;;;;;20.31;76.32;94701.47;5001119;28;20426;-86
2022/08/23 02:05:08;;;;;;;30.25;15.60;;;;;;;19.33;76.30;94541.66;5001220;28;20042;-86
2022/08/23 02:07:34;;;;;;;26.08;15.85;;;;;;;20.28;76.86;94702.16;5002322;28;20112;-85
2022/08/23 02:10:00;;;;;;;23.17;15.90;;;;;;;19.88;76.78;94641.16;5000482;28;20041;-86
2022/08/23 02:12:25;;;;;;;22.80;15.95;;;;;;;19.90;76.60;94663.13;5001233;28;20045;-86
2022/08/23 02:14:51;;;;;;;27.45;15.98;;;;;;;19.62;76.92;94621.97;5002220;28;20073;-85
2022/08/23 02:17:17;;;;;;;24.92;16.48;;;;;;;20.04;77.26;94703.88;5002413;28;20459;-86
2022/08/23 02:19:43;;;;;;;27.60;18.05;;;;;;;19.86;76.97;94650.69;5001389;28;20076;-85
2022/08/23 02:22:10;;;;;;;26.63;16.45;;;;;;;19.89;76.79;94650.78;5000478;28;20046;-86
2022/08/23 02:24:41;;;;;;;27.95;17.80;;;;;;;19.66;76.95;94609.44;5001395;28;20115;-86
2022/08/23 02:27:07;;;;;;;30.27;17.88;;;;;;;20.11;76.69;94668.25;5000458;28;20504;-85
2022/08/23 02:29:34;;;;;;;32.83;18.10;;;;;;;20.44;76.51;94712.97;5000370;28;20263;-86
2022/08/23 02:32:00;;;;;;;27.77;17.70;;;;;;;19.90;76.38;94628.13;5000223;28;20034;-86
2022/08/23 02:34:27;;;;;;;33.17;17.77;;;;;;;20.18;76.02;94673.84;5000200;28;20038;-86
2022/08/23 02:36:53;;;;;;;23.85;18.00;;;;;;;20.24;76.38;94680.53;5000463;28;20045;-86
2022/08/23 02:39:19;;;;;;;27.38;17.20;;;;;;;20.13;76.20;94660.63;5000762;28;20049;-86
2022/08/23 02:41:45;;;;;;;28.23;17.98;;;;;;;19.57;76.99;94590.75;5000144;28;20038;-85
2022/08/23 02:44:11;;;;;;;28.13;17.95;;;;;;;20.46;76.81;94721.47;4999981;28;20109;-86
2022/08/23 02:46:38;;;;;;;33.13;17.95;;;;;;;20.20;76.94;94708.50;4999475;28;20042;-86
2022/08/23 02:49:04;;;;;;;33.92;17.88;;;;;;;19.86;76.62;94648.78;4999398;28;20099;-86
2022/08/23 02:51:29;;;;;;;30.85;18.67;;;;;;;20.19;76.66;94696.94;4999580;28;20714;-86
2022/08/23 02:53:55;;;;;;;25.75;18.15;;;;;;;20.44;76.13;94718.38;5000289;28;20510;-86
2022/08/23 02:56:22;;;;;;;27.38;16.63;;;;;;;19.58;75.74;94583.47;5001661;28;20144;-86
2022/08/23 02:58:48;;;;;;;21.70;15.70;;;;;;;19.73;76.13;94611.53;5000296;28;20076;-86
2022/08/23 03:01:24;;;;;;;22.35;15.75;;;;;;;20.01;75.72;94644.53;5001890;28;20519;-86
2022/08/23 03:03:50;;;;;;;22.27;14.05;;;;;;;20.21;75.28;94665.06;5000062;28;20052;-86
2022/08/23 03:06:16;;;;;;;19.35;13.55;;;;;;;19.94;75.37;94630.91;5001427;28;20610;-86
2022/08/23 03:08:42;;;;;;;18.13;12.70;;;;;;;20.53;74.86;94706.28;5001698;28;20042;-86
2022/08/23 03:11:16;;;;;;;18.73;12.98;;;;;;;19.85;74.91;94623.00;5000201;28;20041;-86
2022/08/23 03:13:44;;;;;;;16.23;12.27;;;;;;;20.51;74.65;94705.88;5003019;28;20048;-86
2022/08/23 03:16:11;;;;;;;26.60;12.52;;;;;;;20.45;74.60;94704.53;5001437;28;20104;-86
2022/08/23 03:18:38;;;;;;;18.63;13.38;;;;;;;20.06;74.20;94627.38;5000374;28;20056;-86
2022/08/23 03:21:05;;;;;;;16.23;12.75;;;;;;;20.55;74.54;94708.63;4999926;28;20048;-86
2022/08/23 03:23:31;;;;;;;19.85;12.05;;;;;;;20.31;73.87;94669.94;5000832;28;20837;-86
2022/08/23 03:25:58;;;;;;;20.08;12.25;;;;;;;20.52;73.65;94704.72;5000017;28;20505;-86
2022/08/23 03:28:24;;;;;;;18.85;11.55;;;;;;;20.31;73.99;94685.28;5002759;28;20038;-86
2022/08/23 03:30:50;;;;;;;20.38;12.50;;;;;;;19.90;73.47;94633.50;5004161;28;20536;-86
2022/08/23 03:33:17;;;;;;;19.95;13.27;;;;;;;19.81;74.56;94654.41;4999158;28;20392;-86
2022/08/23 03:35:43;;;;;;;17.17;13.25;;;;;;;19.42;75.02;94604.91;5002381;28;20481;-86
2022/08/23 03:38:09;;;;;;;23.08;13.85;;;;;;;19.75;74.99;94655.00;5000174;28;20045;-86
2022/08/23 03:40:35;;;;;;;22.20;14.02;;;;;;;19.02;75.62;94567.31;4999537;28;20041;-86
2022/08/23 03:43:01;;;;;;;21.90;13.45;;;;;;;19.33;76.09;94619.63;4999963;28;20042;-86
2022/08/23 03:45:27;;;;;;;18.27;13.15;;;;;;;20.06;75.91;94724.28;5000154;28;20498;-86
2022/08/23 03:47:53;;;;;;;20.33;13.82;;;;;;;18.95;76.30;94552.88;4998813;28;20053;-86
2022/08/23 03:50:19;;;;;;;20.48;13.13;;;;;;;19.30;75.78;94642.59;4998517;28;20412;-86
2022/08/23 03:52:45;;;;;;;19.40;11.63;;;;;;;19.95;76.10;94743.59;4998779;28;20038;-86
2022/08/23 03:55:12;;;;;;;22.02;13.13;;;;;;;19.81;75.29;94720.91;4998610;28;20034;-86
2022/08/23 03:57:37;;;;;;;25.90;11.65;;;;;;;19.59;75.10;94684.56;4999343;28;20511;-86
2022/08/23 04:00:06;;;;;;;20.67;12.65;;;;;;;19.70;75.25;94687.53;4999237;28;20034;-86
2022/08/23 04:02:32;;;;;;;24.73;11.27;;;;;;;19.68;75.57;94695.16;4999255;28;20114;-86
2022/08/23 04:04:58;;;;;;;21.17;11.68;;;;;;;19.89;75.17;94723.44;4998709;28;20041;-86
2022/08/23 04:07:24;;;;;;;20.35;10.35;;;;;;;19.04;75.20;94634.94;5000491;28;20061;-86
2022/08/23 04:09:50;;;;;;;16.83;9.60;;;;;;;19.11;75.55;94640.53;5015517;28;20124;-85
2022/08/23 04:12:16;;;;;;;15.23;9.93;;;;;;;19.05;74.88;94609.63;5001074;28;20120;-85
2022/08/23 04:14:41;;;;;;;18.45;10.02;;;;;;;19.41;74.16;94667.09;4999074;28;20133;-85
2022/08/23 04:17:07;;;;;;;15.57;9.52;;;;;;;19.64;74.00;94700.44;5000362;28;20034;-85
2022/08/23 04:19:32;;;;;;;16.60;9.10;;;;;;;20.22;73.35;94773.53;4998958;28;20042;-85
2022/08/23 04:21:58;;;;;;;15.93;8.77;;;;;;;20.18;73.75;94781.53;4999032;28;20482;-85
2022/08/23 04:24:24;;;;;;;15.18;9.68;;;;;;;19.62;73.49;94678.47;4998628;28;20034;-84
2022/08/23 04:26:49;;;;;;;15.55;8.15;;;;;;;19.90;73.40;94713.47;4999409;28;20030;-86
2022/08/23 04:29:16;;;;;;;10.48;8.68;;;;;;;19.76;73.18;94703.06;4998653;28;20630;-85
2022/08/23 04:31:45;;;;;;;17.52;8.80;;;;;;;19.83;73.12;94714.06;4998842;28;20048;-85
2022/08/23 04:34:11;;;;;;;15.48;9.38;;;;;;;20.00;73.08;94747.94;4999613;28;20049;-85
2022/08/23 04:36:40;;;;;;;12.40;8.60;;;;;;;19.50;72.54;94646.25;4998791;28;20038;-85
2022/08/23 04:39:07;;;;;;;13.55;8.55;;;;;;;20.19;72.82;94745.41;5000691;28;20038;-85
2022/08/23 04:44:16;;;;;;;21.85;9.90;;;;;;;20.08;72.09;94736.25;5007085;28;20052;-85
2022/08/23 04:46:42;;;;;;;23.80;9.00;;;;;;;19.72;72.49;94704.09;5018319;28;20033;-84
2022/08/23 04:49:09;;;;;;;31.55;9.80;;;;;;;19.21;73.90;94720.69;5018283;28;20550;-85
2022/08/23 04:51:35;;;;;;;26.63;9.60;;;;;;;19.53;73.88;94753.16;5020010;28;20044;-85
2022/08/23 04:54:02;;;;;;;20.45;8.95;;;;;;;19.89;73.58;94788.03;5019508;28;20030;-86
2022/08/23 04:56:28;;;;;;;14.95;9.60;;;;;;;19.27;72.72;94697.84;5017543;28;20127;-85
2022/08/23 04:58:54;;;;;;;20.38;10.13;;;;;;;19.89;72.95;94803.38;5017321;28;20033;-85
2022/08/23 05:01:19;;;;;;;18.25;9.30;;;;;;;20.03;71.97;94814.56;5017527;28;20543;-85
2022/08/23 05:03:45;;;;;;;18.90;8.88;;;;;;;19.97;71.14;94799.78;5019204;28;20065;-85
2022/08/23 05:06:11;;;;;;;17.67;8.45;;;;;;;19.85;72.71;94741.38;5016311;28;20057;-85
2022/08/23 05:08:37;;;;;;;13.15;8.27;;;;;;;18.50;71.55;94530.47;5016816;28;20037;-85
2022/08/23 05:11:05;;;;;;;16.27;7.78;;;;;;;20.41;70.35;94816.78;5017103;28;20033;-85
2022/08/23 05:13:33;;;;;;;16.80;7.50;;;;;;;20.27;70.09;94800.22;5019158;28;20026;-85
2022/08/23 05:15:58;;;;;;;17.98;7.63;;;;;;;20.54;70.06;94815.59;5016279;28;20129;-85
2022/08/23 05:18:25;;;;;;;19.92;7.88;;;;;;;20.62;69.86;94827.34;5012868;28;20034;-85
2022/08/23 05:20:52;;;;;;;15.88;8.80;;;;;;;20.57;70.43;94822.22;5005322;28;20049;-85
2022/08/23 05:23:18;;;;;;;20.15;8.93;;;;;;;20.02;71.14;94753.78;5006334;28;20033;-85
2022/08/23 05:25:49;;;;;;;17.52;9.20;;;;;;;19.30;71.86;94666.03;5016464;28;20559;-85
2022/08/23 05:28:22;;;;;;;18.30;8.38;;;;;;;19.97;71.36;94752.13;5017099;28;20478;-85
2022/08/23 05:30:59;;;;;;;12.85;8.02;;;;;;;20.57;70.57;94825.69;5013438;28;20599;-85
2022/08/23 05:33:25;;;;;;;18.25;10.15;;;;;;;20.32;70.52;94797.28;5014407;28;20029;-85
2022/08/23 05:35:51;;;;;;;22.42;9.82;;;;;;;20.55;69.94;94819.84;5016524;28;20405;-85
2022/08/23 05:38:16;;;;;;;20.80;10.57;;;;;;;20.06;69.59;94765.44;5016055;28;20037;-85
2022/08/23 05:40:42;;;;;;;21.35;12.05;;;;;;;20.20;70.37;94800.81;5016895;28;20080;-85
2022/08/23 05:43:07;;;;;;;21.30;11.85;;;;;;;20.32;70.05;94825.00;5015099;28;20421;-85
2022/08/23 05:45:33;;;;;;;25.92;12.90;;;;;;;20.45;70.38;94820.34;5007402;28;20026;-85
2022/08/23 05:47:58;;;;;;;28.45;13.82;;;;;;;20.17;70.39;94803.41;5014676;28;20037;-85
2022/08/23 05:50:24;;;;;;;32.83;13.52;;;;;;;19.35;70.82;94671.16;5016508;28;20226;-85
2022/08/23 05:52:49;;;;;;;23.80;13.48;;;;;;;20.19;70.68;94810.00;5015824;28;20047;-85
2022/08/23 05:55:15;;;;;;;20.17;12.32;;;;;;;19.49;70.13;94722.69;5016421;28;20048;-85
2022/08/23 05:57:41;;;;;;;22.42;12.95;;;;;;;19.74;70.60;94748.38;5017592;28;20033;-85
2022/08/23 06:00:12;;;;;;;30.17;13.73;;;;;;;20.37;70.21;94816.69;5010807;28;20160;-85
2022/08/23 06:02:38;;;;;;;19.27;10.70;;;;;;;19.94;69.55;94742.03;5014313;28;20037;-85
2022/08/23 06:05:04;;;;;;;20.30;12.52;;;;;;;20.01;69.76;94754.88;5001515;28;20040;-85
2022/08/23 06:07:30;;;;;;;30.75;14.10;;;;;;;20.74;69.11;94838.84;5017278;28;20053;-85
2022/08/23 06:09:55;;;;;;;30.50;12.93;;;;;;;18.60;68.93;94483.63;5009641;28;20813;-85
2022/08/23 06:12:21;;;;;;;27.13;13.35;;;;;;;20.38;68.63;94750.91;5004006;28;20048;-85
2022/08/23 06:14:46;;;;;;;21.95;11.85;;;;;;;20.31;68.41;94737.25;5017331;28;20333;-85
2022/08/23 06:17:12;;;;;;;26.33;11.38;;;;;;;20.74;67.58;94792.25;5018929;28;20547;-85
2022/08/23 06:19:37;;;;;;;22.90;10.35;;;;;;;20.52;67.48;94763.97;5018054;28;20035;-86
2022/08/23 06:22:03;;;;;;;19.88;9.40;;;;;;;21.01;67.68;94853.38;5018329;28;20104;-86
2022/08/23 06:24:28;;;;;;;29.20;9.98;;;;;;;20.56;67.20;94761.38;5009171;28;20461;-86
2022/08/23 06:26:54;;;;;;;24.77;8.65;;;;;;;21.00;66.76;94832.94;5000139;28;20111;-86
2022/08/23 06:29:20;;;;;;;14.20;7.18;;;;;;;20.62;65.71;94749.22;5007079;28;20130;-86
2022/08/23 06:31:48;;;;;;;17.17;8.43;;;;;;;21.12;65.10;94850.97;5005918;28;20146;-86
2022/08/23 06:34:31;;;;;;;17.63;7.20;;;;;;;21.33;64.51;94862.31;5015434;28;20555;-86
2022/08/23 06:36:58;;;;;;;13.00;7.95;;;;;;;20.74;64.95;94801.13;5018656;28;20052;-86
2022/08/23 06:39:27;;;;;;;15.13;7.63;;;;;;;21.24;65.55;94847.41;5019263;28;20222;-86
2022/08/23 06:41:59;;;;;;;11.98;7.60;;;;;;;21.26;64.32;94839.78;5021001;28;20623;-87
2022/08/23 06:44:27;;;;;;;15.85;7.85;;;;;;;21.05;64.21;94794.19;5019399;28;20040;-86
2022/08/23 06:46:55;;;;;;;13.70;7.13;;;;;;;21.11;64.10;94793.56;5019852;28;20122;-86
2022/08/23 06:49:21;;;;;;;18.60;7.50;;;;;;;21.70;63.89;94870.09;5016394;28;20496;-85
2022/08/23 06:51:52;;;;;;;18.40;8.27;;;;;;;21.22;64.16;94820.78;5018015;28;20033;-85
2022/08/23 06:54:28;;;;;;;14.02;8.30;;;;;;;21.19;64.13;94799.94;5019307;28;20487;-85
2022/08/23 06:56:54;;;;;;;15.32;8.63;;;;;;;21.27;63.87;94801.66;5003070;28;20567;-85
2022/08/23 06:59:21;;;;;;;13.15;8.57;;;;;;;21.81;63.36;94868.44;5017558;28;20064;-85
2022/08/23 07:01:56;;;;;;;16.55;9.63;;;;;;;21.82;63.22;94876.16;5018937;28;20473;-85
2022/08/23 07:04:27;;;;;;;14.57;8.70;;;;;;;21.83;63.55;94883.13;5011671;28;20046;-86
2022/08/23 07:06:53;;;;;;;;;;;;;;;21.77;63.71;94871.03;5020897;28;20840;-86
2022/08/23 07:09:18;;;;;;;20.77;10.88;;;;;;;21.23;64.33;94813.50;5018613;28;19921;-86
2022/08/23 07:11:44;;;;;;;16.02;10.40;;;;;;;20.61;64.59;94734.97;5021048;28;20091;-85
2022/08/23 07:14:12;;;;;;;15.80;9.90;;;;;;;20.47;64.82;94704.97;5018202;28;20041;-85
2022/08/23 07:16:50;;;;;;;20.90;9.93;;;;;;;21.44;64.66;94832.88;5018189;28;20033;-85
2022/08/23 07:19:18;;;;;;;15.75;11.10;;;;;;;21.73;64.58;94882.91;5018639;28;20052;-85
2022/08/23 07:21:45;;;;;;;26.90;12.75;;;;;;;21.43;64.39;94842.91;5020658;28;20455;-86
2022/08/23 07:24:12;;;;;;;19.95;11.55;;;;;;;21.82;63.83;94886.16;5011114;28;20088;-85
2022/08/23 07:26:39;;;;;;;20.45;12.15;;;;;;;21.54;63.84;94829.63;5015125;28;20515;-86
2022/08/23 07:29:07;;;;;;;24.92;11.43;;;;;;;21.34;64.27;94809.16;5008087;28;20496;-86
2022/08/23 07:31:34;;;;;;;22.08;11.38;;;;;;;20.79;64.26;94703.84;5009828;28;20048;-85
2022/08/23 07:34:03;;;;;;;20.63;10.55;;;;;;;21.02;64.09;94735.56;5019138;28;20044;-85
2022/08/23 07:36:30;;;;;;;16.92;10.93;;;;;;;21.29;63.82;94799.38;5019052;28;20494;-86
2022/08/23 07:38:56;;;;;;;18.38;12.07;;;;;;;21.94;63.59;94877.97;5013563;28;20075;-86
2022/08/23 07:41:24;;;;;;;16.55;11.25;;;;;;;22.11;62.52;94876.81;5010101;28;20138;-86
2022/08/23 07:43:50;;;;;;;25.00;12.13;;;;;;;20.33;63.15;94595.00;5023652;28;20037;-86
2022/08/23 07:46:15;;;;;;;18.40;12.60;;;;;;;21.74;62.81;94785.34;5021519;28;20098;-86
2022/08/23 07:48:41;;;;;;;20.30;12.32;;;;;;;21.83;62.62;94798.66;5017137;28;20037;-85
2022/08/23 07:51:10;;;;;;;20.05;13.73;;;;;;;22.38;61.69;94848.03;5010185;28;20030;-86
2022/08/23 07:53:36;;;;;;;23.45;12.88;;;;;;;22.64;61.29;94862.47;5019499;28;20467;-86
2022/08/23 07:56:09;;;;;;;26.48;15.45;;;;;;;22.14;61.48;94833.66;5017346;28;20033;-85
2022/08/23 07:58:35;;;;;;;23.48;14.90;;;;;;;22.85;60.23;94885.66;5008560;28;20030;-85
2022/08/23 08:01:14;;;;;;;28.88;13.90;;;;;;;22.52;60.11;94845.59;5011226;28;20034;-84
2022/08/23 08:03:40;;;;;;;17.77;12.73;;;;;;;22.37;59.67;94808.66;5007690;28;20395;-86
2022/08/23 08:06:07;;;;;;;15.95;12.82;;;;;;;22.76;59.62;94834.50;5019279;28;20049;-84
2022/08/23 08:08:33;;;;;;;23.63;14.68;;;;;;;22.81;59.92;94834.22;5018189;28;20029;-85
2022/08/23 08:10:59;;;;;;;18.08;12.88;;;;;;;22.69;59.74;94856.75;5018285;28;20047;-85
2022/08/23 08:13:24;;;;;;;20.30;15.10;;;;;;;22.89;59.28;94857.53;5017235;28;20099;-85
2022/08/23 08:15:50;;;;;;;22.33;15.65;;;;;;;23.21;59.76;94893.25;5016038;28;20656;-85
2022/08/23 08:18:15;;;;;;;25.48;14.18;;;;;;;22.54;59.44;94809.00;5018986;28;20045;-85
2022/08/23 08:20:44;;;;;;;22.27;15.00;;;;;;;22.91;59.41;94857.19;5017105;28;20037;-86
2022/08/23 08:23:09;;;;;;;25.35;15.57;;;;;;;22.74;59.03;94817.09;5008401;28;20265;-85
2022/08/23 08:25:35;;;;;;;27.02;15.13;;;;;;;23.13;58.94;94844.81;5006904;28;20512;-85
2022/08/23 08:28:01;;;;;;;27.20;15.32;;;;;;;23.12;58.38;94876.47;5017615;28;20040;-85
2022/08/23 08:30:26;;;;;;;25.00;15.00;;;;;;;22.92;58.53;94812.78;5015812;28;20390;-85
2022/08/23 08:32:52;;;;;;;24.70;13.65;;;;;;;23.34;57.49;94870.31;5009442;28;20264;-85
2022/08/23 08:35:18;;;;;;;25.15;14.63;;;;;;;23.31;58.15;94875.66;5008693;28;20513;-85
2022/08/23 08:37:43;;;;;;;19.17;13.70;;;;;;;23.27;57.57;94843.13;5010379;28;20038;-85
2022/08/23 08:40:10;;;;;;;19.40;12.90;;;;;;;23.31;57.20;94860.19;5008658;28;20069;-85
2022/08/23 08:42:50;;;;;;;19.33;13.30;;;;;;;23.87;57.07;94900.19;5017817;28;20435;-85
2022/08/23 08:45:31;;;;;;;24.95;14.00;;;;;;;23.26;57.38;94813.75;5004074;28;20038;-86
2022/08/23 08:48:07;;;;;;;19.80;12.18;;;;;;;23.89;57.06;94891.66;5015292;28;20041;-84
2022/08/23 08:50:39;;;;;;;17.25;12.40;;;;;;;23.44;56.41;94820.19;5016038;28;20037;-85
2022/08/23 08:53:10;;;;;;;21.95;12.23;;;;;;;24.10;56.06;94894.69;5018040;28;20504;-84
2022/08/23 08:55:41;;;;;;;18.50;13.63;;;;;;;24.25;55.83;94899.19;5017409;28;20033;-85
2022/08/23 08:58:16;;;;;;;23.38;15.57;;;;;;;23.94;56.41;94832.56;5017973;28;20043;-85
2022/08/23 09:00:42;;;;;;;28.75;16.55;;;;;;;23.29;57.20;94786.72;5018734;28;20039;-84
2022/08/23 09:03:15;;;;;;;27.55;17.75;;;;;;;23.11;58.60;94810.03;5019433;28;20040;-85
2022/08/23 09:05:52;;;;;;;28.63;17.35;;;;;;;23.35;58.89;94825.84;5017712;28;20583;-86
2022/08/23 09:08:35;;;;;;;24.63;16.60;;;;;;;23.60;57.63;94817.38;5000021;28;20077;-86
2022/08/23 09:11:24;;;;;;;26.90;17.20;;;;;;;21.75;58.14;94571.00;5009337;28;20037;-85
2022/08/23 09:14:05;;;;;;;23.65;16.95;;;;;;;23.60;57.87;94831.69;5006504;28;20034;-86
2022/08/23 09:16:56;;;;;;;27.80;16.38;;;;;;;24.18;57.01;94866.56;5020037;28;20512;-85
2022/08/23 09:19:23;;;;;;;25.35;16.17;;;;;;;24.17;56.34;94863.06;5016284;28;20239;-85
2022/08/23 09:21:59;;;;;;;29.08;17.77;;;;;;;24.20;56.07;94866.97;5017018;28;20045;-85
2022/08/23 09:24:25;;;;;;;29.63;18.63;;;;;;;22.37;56.89;94585.19;5018789;28;20037;-85
2022/08/23 09:26:52;;;;;;;23.95;17.73;;;;;;;24.04;56.43;94853.59;5017110;28;20119;-86
2022/08/23 09:29:23;;;;;;;29.60;17.10;;;;;;;23.94;56.71;94864.28;5018654;28;20400;-85
2022/08/23 09:31:57;;;;;;;28.13;17.15;;;;;;;23.73;57.56;94865.53;5013197;28;20034;-85
2022/08/23 09:34:29;;;;;;;27.13;17.25;;;;;;;23.46;58.07;94872.03;4996740;28;20290;-85
2022/08/23 09:37:19;;;;;;;29.25;17.15;;;;;;;23.39;57.49;94817.81;5005067;28;20652;-85
2022/08/23 09:40:25;;;;;;;28.98;17.90;;;;;;;23.86;56.55;94863.41;5016566;28;20137;-85
2022/08/23 09:43:10;;;;;;;24.00;17.15;;;;;;;24.01;56.31;94873.28;5013557;28;20130;-85
2022/08/23 09:45:37;;;;;;;28.00;17.00;;;;;;;23.83;56.70;94799.91;4999066;28;20323;-85
2022/08/23 09:48:05;;;;;;;29.58;16.67;;;;;;;24.55;56.70;94859.31;5009458;28;20131;-85
2022/08/23 09:50:37;;;;;;;22.63;16.48;;;;;;;24.64;56.32;94844.69;5004978;28;20033;-85
2022/08/23 09:53:10;;;;;;;21.92;15.13;;;;;;;24.51;55.23;94792.63;5008259;28;20408;-85
2022/08/23 09:55:45;;;;;;;28.73;15.93;;;;;;;24.81;55.50;94819.66;5008941;28;20448;-85
2022/08/23 09:58:42;;;;;;;28.27;16.02;;;;;;;25.34;54.97;94871.75;5007870;28;20040;-85
2022/08/23 10:01:29;;;;;;;20.35;15.48;;;;;;;24.71;53.27;94750.63;5018931;28;20045;-85
2022/08/23 10:04:21;;;;;;;30.05;17.08;;;;;;;25.88;52.07;94841.16;5012956;28;20033;-86
2022/08/23 10:06:47;;;;;;;28.55;15.05;;;;;;;26.21;51.34;94842.09;5016005;28;20122;-84
2022/08/23 10:09:27;;;;;;;28.38;14.20;;;;;;;26.69;48.20;94872.66;5016644;28;20127;-85
2022/08/23 10:11:54;;;;;;;20.67;12.75;;;;;;;26.83;48.18;94840.81;5020099;28;20573;-85
2022/08/23 10:14:21;;;;;;;20.90;14.10;;;;;;;26.80;47.07;94768.13;5008004;28;20125;-85
2022/08/23 10:17:01;;;;;;;19.33;13.50;;;;;;;27.90;47.00;94866.22;5018627;28;20496;-85
2022/08/23 10:20:00;;;;;;;23.60;13.97;;;;;;;28.35;45.09;94858.38;5021804;28;20041;-85
2022/08/23 10:22:27;;;;;;;18.08;12.63;;;;;;;28.55;44.56;94862.19;5015683;28;20079;-85
2022/08/23 10:25:06;;;;;;;22.33;13.10;;;;;;;29.08;43.62;94826.44;5010037;28;20041;-85
2022/08/23 10:31:15;;;;;;;14.93;11.38;;;;;;;30.74;40.27;94860.91;5021351;28;20049;-86
2022/08/23 10:34:15;;;;;;;18.98;12.07;;;;;;;31.20;39.01;94852.88;5013187;28;20041;-85
2022/08/23 10:36:59;;;;;;;15.10;10.13;;;;;;;31.70;37.13;94846.63;4998396;28;20164;-85
2022/08/23 10:39:27;;;;;;;19.90;11.20;;;;;;;31.80;36.32;94799.06;5004968;28;20496;-85
2022/08/23 10:42:24;;;;;;;18.20;10.85;;;;;;;32.27;35.87;94840.16;5007802;28;20046;-85
2022/08/23 10:44:57;;;;;;;23.63;11.02;;;;;;;32.17;36.13;94817.22;5013988;28;20034;-85
2022/08/23 10:47:57;;;;;;;15.15;9.38;;;;;;;30.56;35.93;94601.16;5017035;28;20039;-85
2022/08/23 10:50:25;;;;;;;16.70;9.40;;;;;;;31.20;35.92;94723.34;5018693;28;20466;-85
2022/08/23 10:53:01;;;;;;;14.90;9.90;;;;;;;31.29;36.15;94786.56;5010857;28;20037;-85
2022/08/23 10:55:53;;;;;;;16.05;10.20;;;;;;;30.64;37.27;94764.81;5019588;28;20048;-85
2022/08/23 10:58:24;;;;;;;15.30;9.43;;;;;;;30.71;37.37;94845.28;5015464;28;20274;-85
2022/08/23 11:00:51;;;;;;;;;;;;;;;30.35;38.02;94840.22;5006543;28;20041;-87
2022/08/23 11:03:24;;;;;;;13.75;9.30;;;;;;;29.94;38.30;94815.66;5020573;28;19925;-86
2022/08/23 11:06:23;;;;;;;14.98;10.18;;;;;;;29.35;40.80;94840.34;5020954;28;20048;-86
2022/08/23 11:08:58;;;;;;;14.98;8.80;;;;;;;29.23;39.61;94838.03;5008235;28;20554;-86
2022/08/23 11:11:45;;;;;;;15.82;10.02;;;;;;;28.53;41.27;94839.22;5011660;28;20040;-86
2022/08/23 11:14:26;;;;;;;13.57;9.88;;;;;;;27.84;43.12;94804.34;5019179;28;20060;-86
2022/08/23 11:17:01;;;;;;;14.38;10.10;;;;;;;28.16;42.66;94843.22;5017080;28;20049;-86
2022/08/23 11:19:55;;;;;;;14.80;10.15;;;;;;;28.08;43.54;94840.88;5018055;28;20414;-85
2022/08/23 11:22:29;;;;;;;17.88;9.93;;;;;;;27.76;45.04;94830.06;5009630;28;20431;-85
2022/08/23 11:25:15;;;;;;;16.25;10.95;;;;;;;27.28;45.13;94811.38;5017029;28;20118;-85
2022/08/23 11:27:43;;;;;;;15.20;10.48;;;;;;;27.25;45.40;94809.41;5011034;28;20046;-86
2022/08/23 11:30:33;;;;;;;19.65;10.68;;;;;;;27.25;45.76;94847.53;5017171;28;20095;-85
2022/08/23 11:33:08;;;;;;;16.00;10.33;;;;;;;26.87;45.49;94800.78;5018323;28;20033;-86
2022/08/23 11:35:41;;;;;;;21.00;11.32;;;;;;;26.54;46.18;94782.09;5020194;28;20116;-85
2022/08/23 11:38:07;;;;;;;17.65;11.23;;;;;;;25.99;46.89;94730.59;5019134;28;20038;-85
2022/08/23 11:40:49;;;;;;;21.88;11.50;;;;;;;26.53;46.65;94826.75;5005690;28;20385;-86
2022/08/23 11:43:37;;;;;;;17.40;11.10;;;;;;;26.81;45.83;94826.03;5016549;28;20126;-86
2022/08/23 11:46:21;;;;;;;16.35;11.20;;;;;;;26.69;46.49;94820.97;5001850;28;20064;-85